sensor_id;sensor_type;location;lat;lon;timestamp;P1;durP1;ratioP1;P2;durP2;ratioP2
46407;SDS011;32110;45.724;21.276;2022-09-06T00:01:35;11.50;;;8.18;;
46407;SDS011;32110;45.724;21.276;2022-09-06T00:04:01;16.88;;;8.95;;
46407;SDS011;32110;45.724;21.276;2022-09-06T00:06:26;12.60;;;7.95;;
46407;SDS011;32110;45.724;21.276;2022-09-06T00:08:51;12.73;;;8.60;;
46407;SDS011;32110;45.724;21.276;2022-09-06T00:11:17;14.02;;;8.45;;
46407;SDS011;32110;45.724;21.276;2022-09-06T00:13:43;16.25;;;8.25;;
46407;SDS011;32110;45.724;21.276;2022-09-06T00:16:09;13.30;;;8.65;;
46407;SDS011;32110;45.724;21.276;2022-09-06T00:18:35;12.50;;;8.23;;
46407;SDS011;32110;45.724;21.276;2022-09-06T00:21:01;13.57;;;8.30;;
46407;SDS011;32110;45.724;21.276;2022-09-06T00:23:27;16.33;;;8.68;;
46407;SDS011;32110;45.724;21.276;2022-09-06T00:25:52;11.73;;;7.97;;
46407;SDS011;32110;45.724;21.276;2022-09-06T00:28:17;11.90;;;7.72;;
46407;SDS011;32110;45.724;21.276;2022-09-06T00:30:43;14.07;;;7.88;;
46407;SDS011;32110;45.724;21.276;2022-09-06T00:33:09;11.45;;;7.90;;
46407;SDS011;32110;45.724;21.276;2022-09-06T00:35:34;10.30;;;7.85;;
46407;SDS011;32110;45.724;21.276;2022-09-06T00:38:00;16.63;;;7.63;;
46407;SDS011;32110;45.724;21.276;2022-09-06T00:40:26;10.75;;;7.72;;
46407;SDS011;32110;45.724;21.276;2022-09-06T00:42:53;12.82;;;7.90;;
46407;SDS011;32110;45.724;21.276;2022-09-06T00:45:19;12.90;;;8.10;;
46407;SDS011;32110;45.724;21.276;2022-09-06T00:47:44;15.57;;;7.70;;
46407;SDS011;32110;45.724;21.276;2022-09-06T00:50:10;12.30;;;7.57;;
46407;SDS011;32110;45.724;21.276;2022-09-06T00:52:36;13.77;;;7.97;;
46407;SDS011;32110;45.724;21.276;2022-09-06T00:55:02;11.55;;;8.07;;
46407;SDS011;32110;45.724;21.276;2022-09-06T00:57:28;14.80;;;7.60;;
46407;SDS011;32110;45.724;21.276;2022-09-06T00:59:56;15.18;;;8.25;;
46407;SDS011;32110;45.724;21.276;2022-09-06T01:02:21;12.38;;;8.25;;
46407;SDS011;32110;45.724;21.276;2022-09-06T01:04:46;13.73;;;8.00;;
46407;SDS011;32110;45.724;21.276;2022-09-06T01:17:40;11.65;;;7.05;;
46407;SDS011;32110;45.724;21.276;2022-09-06T01:30:37;16.20;;;7.27;;
46407;SDS011;32110;45.724;21.276;2022-09-06T01:33:06;9.27;;;7.55;;
46407;SDS011;32110;45.724;21.276;2022-09-06T01:35:37;13.30;;;7.80;;
46407;SDS011;32110;45.724;21.276;2022-09-06T01:38:04;10.40;;;7.15;;
46407;SDS011;32110;45.724;21.276;2022-09-06T01:40:31;10.98;;;7.93;;
46407;SDS011;32110;45.724;21.276;2022-09-06T01:43:00;13.68;;;7.57;;
46407;SDS011;32110;45.724;21.276;2022-09-06T01:45:31;12.90;;;7.85;;
46407;SDS011;32110;45.724;21.276;2022-09-06T01:53:39;9.43;;;7.18;;
46407;SDS011;32110;45.724;21.276;2022-09-06T01:56:37;14.13;;;7.80;;
46407;SDS011;32110;45.724;21.276;2022-09-06T02:01:37;10.18;;;7.13;;
46407;SDS011;32110;45.724;21.276;2022-09-06T02:06:37;10.65;;;7.90;;
46407;SDS011;32110;45.724;21.276;2022-09-06T02:09:10;11.27;;;7.20;;
46407;SDS011;32110;45.724;21.276;2022-09-06T02:11:47;12.43;;;7.65;;
46407;SDS011;32110;45.724;21.276;2022-09-06T02:14:15;15.43;;;8.43;;
46407;SDS011;32110;45.724;21.276;2022-09-06T02:16:43;10.40;;;7.63;;
46407;SDS011;32110;45.724;21.276;2022-09-06T02:19:23;12.43;;;7.20;;
46407;SDS011;32110;45.724;21.276;2022-09-06T02:21:52;12.00;;;7.65;;
46407;SDS011;32110;45.724;21.276;2022-09-06T02:24:19;13.35;;;7.82;;
46407;SDS011;32110;45.724;21.276;2022-09-06T02:26:46;9.82;;;7.20;;
46407;SDS011;32110;45.724;21.276;2022-09-06T02:29:12;9.60;;;7.40;;
46407;SDS011;32110;45.724;21.276;2022-09-06T02:31:38;9.55;;;7.20;;
46407;SDS011;32110;45.724;21.276;2022-09-06T02:34:06;11.75;;;6.88;;
46407;SDS011;32110;45.724;21.276;2022-09-06T02:36:31;11.05;;;7.40;;
46407;SDS011;32110;45.724;21.276;2022-09-06T02:38:59;15.90;;;8.75;;
46407;SDS011;32110;45.724;21.276;2022-09-06T02:41:25;12.82;;;7.78;;
46407;SDS011;32110;45.724;21.276;2022-09-06T02:43:51;15.73;;;7.47;;
46407;SDS011;32110;45.724;21.276;2022-09-06T02:46:17;9.10;;;6.47;;
46407;SDS011;32110;45.724;21.276;2022-09-06T02:48:42;12.60;;;6.80;;
46407;SDS011;32110;45.724;21.276;2022-09-06T02:51:08;14.87;;;7.00;;
46407;SDS011;32110;45.724;21.276;2022-09-06T02:53:33;11.05;;;7.32;;
46407;SDS011;32110;45.724;21.276;2022-09-06T02:55:59;11.00;;;7.60;;
46407;SDS011;32110;45.724;21.276;2022-09-06T02:58:24;13.82;;;8.30;;
46407;SDS011;32110;45.724;21.276;2022-09-06T03:00:50;10.98;;;8.00;;
46407;SDS011;32110;45.724;21.276;2022-09-06T03:03:16;12.02;;;7.47;;
46407;SDS011;32110;45.724;21.276;2022-09-06T03:05:44;13.40;;;8.05;;
46407;SDS011;32110;45.724;21.276;2022-09-06T03:08:10;17.85;;;8.32;;
46407;SDS011;32110;45.724;21.276;2022-09-06T03:10:35;14.93;;;8.07;;
46407;SDS011;32110;45.724;21.276;2022-09-06T03:13:01;13.80;;;7.88;;
46407;SDS011;32110;45.724;21.276;2022-09-06T03:15:27;18.13;;;8.00;;
46407;SDS011;32110;45.724;21.276;2022-09-06T03:17:55;18.27;;;8.07;;
46407;SDS011;32110;45.724;21.276;2022-09-06T03:20:21;14.77;;;7.93;;
46407;SDS011;32110;45.724;21.276;2022-09-06T03:22:46;14.13;;;7.47;;
46407;SDS011;32110;45.724;21.276;2022-09-06T03:25:12;11.60;;;7.32;;
46407;SDS011;32110;45.724;21.276;2022-09-06T03:27:37;10.00;;;7.30;;
46407;SDS011;32110;45.724;21.276;2022-09-06T03:30:03;13.33;;;7.83;;
46407;SDS011;32110;45.724;21.276;2022-09-06T03:32:28;15.98;;;7.38;;
46407;SDS011;32110;45.724;21.276;2022-09-06T03:34:53;10.07;;;7.57;;
46407;SDS011;32110;45.724;21.276;2022-09-06T03:37:19;17.83;;;8.17;;
46407;SDS011;32110;45.724;21.276;2022-09-06T03:39:44;12.43;;;7.55;;
46407;SDS011;32110;45.724;21.276;2022-09-06T03:42:09;9.37;;;6.67;;
46407;SDS011;32110;45.724;21.276;2022-09-06T03:44:34;10.68;;;6.95;;
46407;SDS011;32110;45.724;21.276;2022-09-06T03:47:00;9.80;;;6.70;;
46407;SDS011;32110;45.724;21.276;2022-09-06T03:49:25;10.20;;;7.07;;
46407;SDS011;32110;45.724;21.276;2022-09-06T03:51:50;9.37;;;7.33;;
46407;SDS011;32110;45.724;21.276;2022-09-06T03:54:16;14.68;;;8.18;;
46407;SDS011;32110;45.724;21.276;2022-09-06T03:56:41;15.97;;;8.37;;
46407;SDS011;32110;45.724;21.276;2022-09-06T03:59:06;18.70;;;8.47;;
46407;SDS011;32110;45.724;21.276;2022-09-06T04:01:31;12.43;;;8.07;;
46407;SDS011;32110;45.724;21.276;2022-09-06T04:03:57;19.97;;;7.83;;
46407;SDS011;32110;45.724;21.276;2022-09-06T04:06:22;13.63;;;8.20;;
46407;SDS011;32110;45.724;21.276;2022-09-06T04:08:47;14.50;;;7.63;;
46407;SDS011;32110;45.724;21.276;2022-09-06T04:11:13;15.02;;;7.40;;
46407;SDS011;32110;45.724;21.276;2022-09-06T04:13:38;18.40;;;7.33;;
46407;SDS011;32110;45.724;21.276;2022-09-06T04:16:03;13.67;;;7.97;;
46407;SDS011;32110;45.724;21.276;2022-09-06T04:18:29;15.15;;;7.38;;
46407;SDS011;32110;45.724;21.276;2022-09-06T04:20:54;9.48;;;7.25;;
46407;SDS011;32110;45.724;21.276;2022-09-06T04:23:20;14.95;;;7.72;;
46407;SDS011;32110;45.724;21.276;2022-09-06T04:25:46;19.48;;;7.45;;
46407;SDS011;32110;45.724;21.276;2022-09-06T04:28:11;16.10;;;7.55;;
46407;SDS011;32110;45.724;21.276;2022-09-06T04:30:36;15.07;;;8.33;;
46407;SDS011;32110;45.724;21.276;2022-09-06T04:33:02;11.93;;;7.93;;
46407;SDS011;32110;45.724;21.276;2022-09-06T04:35:27;14.50;;;8.05;;
46407;SDS011;32110;45.724;21.276;2022-09-06T04:37:52;14.13;;;8.17;;
46407;SDS011;32110;45.724;21.276;2022-09-06T04:40:17;14.93;;;8.30;;
46407;SDS011;32110;45.724;21.276;2022-09-06T04:42:43;21.03;;;9.00;;
46407;SDS011;32110;45.724;21.276;2022-09-06T04:45:08;27.47;;;8.50;;
46407;SDS011;32110;45.724;21.276;2022-09-06T04:47:33;20.27;;;8.60;;
46407;SDS011;32110;45.724;21.276;2022-09-06T04:49:59;13.48;;;8.23;;
46407;SDS011;32110;45.724;21.276;2022-09-06T04:52:24;17.83;;;8.90;;
46407;SDS011;32110;45.724;21.276;2022-09-06T04:54:49;21.80;;;8.70;;
46407;SDS011;32110;45.724;21.276;2022-09-06T04:57:14;18.40;;;8.30;;
46407;SDS011;32110;45.724;21.276;2022-09-06T04:59:40;27.00;;;9.32;;
46407;SDS011;32110;45.724;21.276;2022-09-06T05:02:05;23.80;;;9.00;;
46407;SDS011;32110;45.724;21.276;2022-09-06T05:04:30;20.63;;;9.60;;
46407;SDS011;32110;45.724;21.276;2022-09-06T05:06:59;22.98;;;8.70;;
46407;SDS011;32110;45.724;21.276;2022-09-06T05:09:25;19.45;;;9.40;;
46407;SDS011;32110;45.724;21.276;2022-09-06T05:11:51;40.22;;;22.63;;
46407;SDS011;32110;45.724;21.276;2022-09-06T05:14:16;18.77;;;9.53;;
46407;SDS011;32110;45.724;21.276;2022-09-06T05:16:41;27.67;;;9.90;;
46407;SDS011;32110;45.724;21.276;2022-09-06T05:19:09;13.90;;;9.20;;
46407;SDS011;32110;45.724;21.276;2022-09-06T05:21:34;17.53;;;8.47;;
46407;SDS011;32110;45.724;21.276;2022-09-06T05:23:59;16.97;;;9.17;;
46407;SDS011;32110;45.724;21.276;2022-09-06T05:26:24;16.77;;;9.37;;
46407;SDS011;32110;45.724;21.276;2022-09-06T05:28:50;18.70;;;8.83;;
46407;SDS011;32110;45.724;21.276;2022-09-06T05:31:25;19.80;;;9.10;;
46407;SDS011;32110;45.724;21.276;2022-09-06T05:33:51;17.55;;;9.27;;
46407;SDS011;32110;45.724;21.276;2022-09-06T05:36:17;17.83;;;9.57;;
46407;SDS011;32110;45.724;21.276;2022-09-06T05:38:42;17.40;;;9.60;;
46407;SDS011;32110;45.724;21.276;2022-09-06T05:41:08;17.03;;;9.50;;
46407;SDS011;32110;45.724;21.276;2022-09-06T05:43:33;18.88;;;9.38;;
46407;SDS011;32110;45.724;21.276;2022-09-06T05:45:58;24.13;;;9.23;;
46407;SDS011;32110;45.724;21.276;2022-09-06T05:48:24;26.53;;;9.97;;
46407;SDS011;32110;45.724;21.276;2022-09-06T05:50:58;17.40;;;9.90;;
46407;SDS011;32110;45.724;21.276;2022-09-06T05:53:23;17.98;;;9.05;;
46407;SDS011;32110;45.724;21.276;2022-09-06T05:55:48;21.55;;;8.68;;
46407;SDS011;32110;45.724;21.276;2022-09-06T05:58:14;18.53;;;9.17;;
46407;SDS011;32110;45.724;21.276;2022-09-06T06:00:39;13.77;;;9.23;;
46407;SDS011;32110;45.724;21.276;2022-09-06T06:03:04;21.83;;;9.10;;
46407;SDS011;32110;45.724;21.276;2022-09-06T06:05:29;14.47;;;8.40;;
46407;SDS011;32110;45.724;21.276;2022-09-06T06:07:55;25.38;;;9.10;;
46407;SDS011;32110;45.724;21.276;2022-09-06T06:10:22;25.55;;;9.60;;
46407;SDS011;32110;45.724;21.276;2022-09-06T06:12:47;16.40;;;9.40;;
46407;SDS011;32110;45.724;21.276;2022-09-06T06:15:12;16.05;;;9.60;;
46407;SDS011;32110;45.724;21.276;2022-09-06T06:17:38;11.07;;;8.40;;
46407;SDS011;32110;45.724;21.276;2022-09-06T06:20:03;22.10;;;9.77;;
46407;SDS011;32110;45.724;21.276;2022-09-06T06:22:28;20.23;;;9.68;;
46407;SDS011;32110;45.724;21.276;2022-09-06T06:24:53;16.17;;;9.23;;
46407;SDS011;32110;45.724;21.276;2022-09-06T06:27:19;17.70;;;9.53;;
46407;SDS011;32110;45.724;21.276;2022-09-06T06:29:44;21.50;;;10.40;;
46407;SDS011;32110;45.724;21.276;2022-09-06T06:32:09;17.42;;;11.02;;
46407;SDS011;32110;45.724;21.276;2022-09-06T06:34:34;24.30;;;12.07;;
46407;SDS011;32110;45.724;21.276;2022-09-06T06:37:00;16.30;;;10.83;;
46407;SDS011;32110;45.724;21.276;2022-09-06T06:39:25;16.27;;;10.27;;
46407;SDS011;32110;45.724;21.276;2022-09-06T06:41:51;22.33;;;10.57;;
46407;SDS011;32110;45.724;21.276;2022-09-06T06:44:16;24.55;;;11.50;;
46407;SDS011;32110;45.724;21.276;2022-09-06T06:46:42;16.63;;;9.20;;
46407;SDS011;32110;45.724;21.276;2022-09-06T06:49:07;13.77;;;9.02;;
46407;SDS011;32110;45.724;21.276;2022-09-06T06:51:33;17.83;;;8.80;;
46407;SDS011;32110;45.724;21.276;2022-09-06T06:54:01;12.77;;;7.35;;
46407;SDS011;32110;45.724;21.276;2022-09-06T06:56:36;20.92;;;8.65;;
46407;SDS011;32110;45.724;21.276;2022-09-06T06:59:02;18.45;;;8.32;;
46407;SDS011;32110;45.724;21.276;2022-09-06T07:01:28;16.27;;;7.90;;
46407;SDS011;32110;45.724;21.276;2022-09-06T07:03:54;12.48;;;7.00;;
46407;SDS011;32110;45.724;21.276;2022-09-06T07:06:20;14.75;;;7.30;;
46407;SDS011;32110;45.724;21.276;2022-09-06T07:08:45;15.27;;;7.43;;
46407;SDS011;32110;45.724;21.276;2022-09-06T07:11:11;12.10;;;6.78;;
46407;SDS011;32110;45.724;21.276;2022-09-06T07:13:38;17.58;;;7.05;;
46407;SDS011;32110;45.724;21.276;2022-09-06T07:18:33;14.00;;;7.15;;
46407;SDS011;32110;45.724;21.276;2022-09-06T07:20:59;15.55;;;6.95;;
46407;SDS011;32110;45.724;21.276;2022-09-06T07:23:24;13.00;;;6.70;;
46407;SDS011;32110;45.724;21.276;2022-09-06T07:25:49;13.43;;;6.83;;
46407;SDS011;32110;45.724;21.276;2022-09-06T07:28:14;12.40;;;6.80;;
46407;SDS011;32110;45.724;21.276;2022-09-06T07:30:40;16.83;;;7.60;;
46407;SDS011;32110;45.724;21.276;2022-09-06T07:33:06;20.80;;;7.57;;
46407;SDS011;32110;45.724;21.276;2022-09-06T07:35:31;14.13;;;6.90;;
46407;SDS011;32110;45.724;21.276;2022-09-06T07:37:58;30.95;;;8.52;;
46407;SDS011;32110;45.724;21.276;2022-09-06T07:40:24;20.27;;;7.13;;
46407;SDS011;32110;45.724;21.276;2022-09-06T07:42:50;12.80;;;7.40;;
46407;SDS011;32110;45.724;21.276;2022-09-06T07:45:16;15.80;;;7.00;;
46407;SDS011;32110;45.724;21.276;2022-09-06T07:47:41;15.45;;;6.75;;
46407;SDS011;32110;45.724;21.276;2022-09-06T07:50:07;15.68;;;6.93;;
46407;SDS011;32110;45.724;21.276;2022-09-06T07:52:33;9.50;;;6.40;;
46407;SDS011;32110;45.724;21.276;2022-09-06T07:54:58;14.65;;;6.85;;
46407;SDS011;32110;45.724;21.276;2022-09-06T07:57:24;9.35;;;6.40;;
46407;SDS011;32110;45.724;21.276;2022-09-06T07:59:49;10.52;;;6.72;;
46407;SDS011;32110;45.724;21.276;2022-09-06T08:02:15;11.90;;;6.72;;
46407;SDS011;32110;45.724;21.276;2022-09-06T08:04:41;8.60;;;5.90;;
46407;SDS011;32110;45.724;21.276;2022-09-06T08:07:07;11.50;;;6.60;;
46407;SDS011;32110;45.724;21.276;2022-09-06T08:09:33;11.30;;;6.60;;
46407;SDS011;32110;45.724;21.276;2022-09-06T08:11:58;11.40;;;6.37;;
46407;SDS011;32110;45.724;21.276;2022-09-06T08:14:23;11.48;;;5.82;;
46407;SDS011;32110;45.724;21.276;2022-09-06T08:16:49;9.52;;;6.25;;
46407;SDS011;32110;45.724;21.276;2022-09-06T08:19:14;10.20;;;6.40;;
46407;SDS011;32110;45.724;21.276;2022-09-06T08:21:40;11.38;;;5.82;;
46407;SDS011;32110;45.724;21.276;2022-09-06T08:24:06;9.63;;;5.60;;
46407;SDS011;32110;45.724;21.276;2022-09-06T08:26:36;9.73;;;6.05;;
46407;SDS011;32110;45.724;21.276;2022-09-06T08:29:08;12.57;;;5.13;;
46407;SDS011;32110;45.724;21.276;2022-09-06T08:31:36;8.60;;;5.28;;
46407;SDS011;32110;45.724;21.276;2022-09-06T08:34:03;10.57;;;5.25;;
46407;SDS011;32110;45.724;21.276;2022-09-06T08:36:29;7.05;;;4.72;;
46407;SDS011;32110;45.724;21.276;2022-09-06T08:38:55;8.02;;;4.22;;
46407;SDS011;32110;45.724;21.276;2022-09-06T08:41:25;7.20;;;4.30;;
46407;SDS011;32110;45.724;21.276;2022-09-06T08:43:56;5.55;;;4.78;;
46407;SDS011;32110;45.724;21.276;2022-09-06T08:46:47;7.38;;;4.82;;
46407;SDS011;32110;45.724;21.276;2022-09-06T08:49:12;10.13;;;4.95;;
46407;SDS011;32110;45.724;21.276;2022-09-06T08:54:05;8.77;;;4.75;;
46407;SDS011;32110;45.724;21.276;2022-09-06T08:56:38;8.85;;;4.22;;
46407;SDS011;32110;45.724;21.276;2022-09-06T09:01:45;5.47;;;3.55;;
46407;SDS011;32110;45.724;21.276;2022-09-06T09:04:17;4.93;;;4.10;;
46407;SDS011;32110;45.724;21.276;2022-09-06T09:06:49;5.22;;;3.70;;
46407;SDS011;32110;45.724;21.276;2022-09-06T09:09:19;4.75;;;3.33;;
46407;SDS011;32110;45.724;21.276;2022-09-06T09:11:45;7.20;;;3.70;;
46407;SDS011;32110;45.724;21.276;2022-09-06T09:14:21;6.55;;;3.38;;
46407;SDS011;32110;45.724;21.276;2022-09-06T09:17:02;6.60;;;3.70;;
46407;SDS011;32110;45.724;21.276;2022-09-06T09:19:30;4.28;;;3.35;;
46407;SDS011;32110;45.724;21.276;2022-09-06T09:22:00;6.43;;;3.65;;
46407;SDS011;32110;45.724;21.276;2022-09-06T09:24:25;5.15;;;3.20;;
46407;SDS011;32110;45.724;21.276;2022-09-06T09:26:53;6.22;;;3.58;;
46407;SDS011;32110;45.724;21.276;2022-09-06T09:29:21;5.40;;;3.22;;
46407;SDS011;32110;45.724;21.276;2022-09-06T09:31:48;4.95;;;3.00;;
46407;SDS011;32110;45.724;21.276;2022-09-06T09:37:13;7.40;;;3.75;;
46407;SDS011;32110;45.724;21.276;2022-09-06T09:39:50;7.32;;;3.30;;
46407;SDS011;32110;45.724;21.276;2022-09-06T09:42:28;4.70;;;3.38;;
46407;SDS011;32110;45.724;21.276;2022-09-06T09:44:54;5.57;;;3.90;;
46407;SDS011;32110;45.724;21.276;2022-09-06T09:49:58;4.03;;;3.13;;
46407;SDS011;32110;45.724;21.276;2022-09-06T09:52:24;4.38;;;3.42;;
46407;SDS011;32110;45.724;21.276;2022-09-06T09:54:59;4.68;;;3.42;;
46407;SDS011;32110;45.724;21.276;2022-09-06T09:57:27;6.18;;;3.38;;
46407;SDS011;32110;45.724;21.276;2022-09-06T09:59:56;5.00;;;3.50;;
46407;SDS011;32110;45.724;21.276;2022-09-06T10:02:37;7.97;;;3.65;;
46407;SDS011;32110;45.724;21.276;2022-09-06T10:05:08;6.75;;;3.75;;
46407;SDS011;32110;45.724;21.276;2022-09-06T10:07:45;6.57;;;3.28;;
46407;SDS011;32110;45.724;21.276;2022-09-06T10:12:44;7.05;;;3.45;;
46407;SDS011;32110;45.724;21.276;2022-09-06T10:15:10;6.85;;;3.40;;
46407;SDS011;32110;45.724;21.276;2022-09-06T10:17:55;4.80;;;3.40;;
46407;SDS011;32110;45.724;21.276;2022-09-06T10:20:20;5.97;;;3.40;;
46407;SDS011;32110;45.724;21.276;2022-09-06T10:33:53;6.65;;;3.45;;
46407;SDS011;32110;45.724;21.276;2022-09-06T10:47:10;6.10;;;3.15;;
46407;SDS011;32110;45.724;21.276;2022-09-06T10:49:39;4.72;;;2.88;;
46407;SDS011;32110;45.724;21.276;2022-09-06T10:52:10;4.20;;;2.90;;
46407;SDS011;32110;45.724;21.276;2022-09-06T10:54:39;5.18;;;3.13;;
46407;SDS011;32110;45.724;21.276;2022-09-06T10:59:41;4.57;;;3.05;;
46407;SDS011;32110;45.724;21.276;2022-09-06T11:05:09;6.47;;;3.00;;
46407;SDS011;32110;45.724;21.276;2022-09-06T11:07:42;4.95;;;3.03;;
46407;SDS011;32110;45.724;21.276;2022-09-06T11:10:14;8.65;;;3.20;;
46407;SDS011;32110;45.724;21.276;2022-09-06T11:15:30;4.55;;;2.60;;
46407;SDS011;32110;45.724;21.276;2022-09-06T11:18:07;4.53;;;2.65;;
46407;SDS011;32110;45.724;21.276;2022-09-06T11:20:34;3.33;;;2.55;;
46407;SDS011;32110;45.724;21.276;2022-09-06T11:28:45;3.67;;;2.30;;
46407;SDS011;32110;45.724;21.276;2022-09-06T11:31:29;5.72;;;2.58;;
46407;SDS011;32110;45.724;21.276;2022-09-06T11:34:10;4.28;;;2.63;;
46407;SDS011;32110;45.724;21.276;2022-09-06T11:36:47;3.08;;;2.50;;
46407;SDS011;32110;45.724;21.276;2022-09-06T11:39:22;3.83;;;2.60;;
46407;SDS011;32110;45.724;21.276;2022-09-06T11:42:09;3.22;;;2.63;;
46407;SDS011;32110;45.724;21.276;2022-09-06T11:50:20;5.53;;;2.78;;
46407;SDS011;32110;45.724;21.276;2022-09-06T11:52:55;3.20;;;2.30;;
46407;SDS011;32110;45.724;21.276;2022-09-06T11:55:28;2.70;;;2.50;;
46407;SDS011;32110;45.724;21.276;2022-09-06T11:57:58;3.15;;;2.50;;
46407;SDS011;32110;45.724;21.276;2022-09-06T12:00:25;2.90;;;2.60;;
46407;SDS011;32110;45.724;21.276;2022-09-06T12:02:51;2.75;;;2.53;;
46407;SDS011;32110;45.724;21.276;2022-09-06T12:15:57;3.63;;;2.40;;
46407;SDS011;32110;45.724;21.276;2022-09-06T12:21:08;3.78;;;2.55;;
46407;SDS011;32110;45.724;21.276;2022-09-06T12:25:59;5.70;;;2.60;;
46407;SDS011;32110;45.724;21.276;2022-09-06T12:28:33;4.85;;;2.65;;
46407;SDS011;32110;45.724;21.276;2022-09-06T12:33:51;2.75;;;2.13;;
46407;SDS011;32110;45.724;21.276;2022-09-06T12:36:25;8.63;;;2.75;;
46407;SDS011;32110;45.724;21.276;2022-09-06T12:41:58;3.55;;;2.20;;
46407;SDS011;32110;45.724;21.276;2022-09-06T12:44:34;3.45;;;2.40;;
46407;SDS011;32110;45.724;21.276;2022-09-06T12:47:02;5.47;;;2.30;;
46407;SDS011;32110;45.724;21.276;2022-09-06T12:49:31;3.05;;;2.35;;
46407;SDS011;32110;45.724;21.276;2022-09-06T12:52:13;2.80;;;2.50;;
46407;SDS011;32110;45.724;21.276;2022-09-06T12:54:47;5.72;;;2.45;;
46407;SDS011;32110;45.724;21.276;2022-09-06T12:59:45;4.17;;;2.43;;
46407;SDS011;32110;45.724;21.276;2022-09-06T13:02:13;2.22;;;2.03;;
46407;SDS011;32110;45.724;21.276;2022-09-06T13:04:47;2.97;;;2.30;;
46407;SDS011;32110;45.724;21.276;2022-09-06T13:07:16;3.50;;;2.30;;
46407;SDS011;32110;45.724;21.276;2022-09-06T13:09:45;2.88;;;2.35;;
46407;SDS011;32110;45.724;21.276;2022-09-06T13:12:35;4.50;;;2.20;;
46407;SDS011;32110;45.724;21.276;2022-09-06T13:15:06;4.53;;;2.03;;
46407;SDS011;32110;45.724;21.276;2022-09-06T13:17:36;10.23;;;2.42;;
46407;SDS011;32110;45.724;21.276;2022-09-06T13:20:09;3.65;;;2.35;;
46407;SDS011;32110;45.724;21.276;2022-09-06T13:22:44;5.68;;;2.83;;
46407;SDS011;32110;45.724;21.276;2022-09-06T13:25:12;3.03;;;2.20;;
46407;SDS011;32110;45.724;21.276;2022-09-06T13:27:44;2.92;;;2.30;;
46407;SDS011;32110;45.724;21.276;2022-09-06T13:33:03;4.07;;;2.60;;
46407;SDS011;32110;45.724;21.276;2022-09-06T13:35:32;3.50;;;2.10;;
46407;SDS011;32110;45.724;21.276;2022-09-06T13:38:20;2.70;;;2.50;;
46407;SDS011;32110;45.724;21.276;2022-09-06T13:40:54;3.60;;;2.65;;
46407;SDS011;32110;45.724;21.276;2022-09-06T13:43:20;4.75;;;2.30;;
46407;SDS011;32110;45.724;21.276;2022-09-06T13:45:47;6.25;;;2.83;;
46407;SDS011;32110;45.724;21.276;2022-09-06T13:48:13;7.80;;;2.15;;
46407;SDS011;32110;45.724;21.276;2022-09-06T13:50:39;5.82;;;2.58;;
46407;SDS011;32110;45.724;21.276;2022-09-06T13:53:05;3.08;;;2.35;;
46407;SDS011;32110;45.724;21.276;2022-09-06T13:55:31;3.45;;;2.60;;
46407;SDS011;32110;45.724;21.276;2022-09-06T13:57:59;6.53;;;2.83;;
46407;SDS011;32110;45.724;21.276;2022-09-06T14:00:24;4.90;;;2.35;;
46407;SDS011;32110;45.724;21.276;2022-09-06T14:02:50;5.82;;;2.20;;
46407;SDS011;32110;45.724;21.276;2022-09-06T14:05:16;5.60;;;2.40;;
46407;SDS011;32110;45.724;21.276;2022-09-06T14:07:42;3.10;;;2.30;;
46407;SDS011;32110;45.724;21.276;2022-09-06T14:10:08;4.20;;;2.45;;
46407;SDS011;32110;45.724;21.276;2022-09-06T14:12:35;4.43;;;2.53;;
46407;SDS011;32110;45.724;21.276;2022-09-06T14:15:01;5.32;;;1.95;;
46407;SDS011;32110;45.724;21.276;2022-09-06T14:17:26;9.15;;;2.30;;
46407;SDS011;32110;45.724;21.276;2022-09-06T14:19:52;2.63;;;2.10;;
46407;SDS011;32110;45.724;21.276;2022-09-06T14:22:17;4.43;;;2.40;;
46407;SDS011;32110;45.724;21.276;2022-09-06T14:24:42;3.55;;;2.40;;
46407;SDS011;32110;45.724;21.276;2022-09-06T14:27:08;2.47;;;2.25;;
46407;SDS011;32110;45.724;21.276;2022-09-06T14:29:33;2.38;;;2.17;;
46407;SDS011;32110;45.724;21.276;2022-09-06T14:31:59;4.38;;;2.13;;
46407;SDS011;32110;45.724;21.276;2022-09-06T14:34:25;11.68;;;2.28;;
46407;SDS011;32110;45.724;21.276;2022-09-06T14:36:51;6.07;;;2.45;;
46407;SDS011;32110;45.724;21.276;2022-09-06T14:39:17;3.65;;;2.38;;
46407;SDS011;32110;45.724;21.276;2022-09-06T14:41:43;4.47;;;2.60;;
46407;SDS011;32110;45.724;21.276;2022-09-06T14:44:08;7.00;;;2.58;;
46407;SDS011;32110;45.724;21.276;2022-09-06T14:46:34;3.83;;;2.53;;
46407;SDS011;32110;45.724;21.276;2022-09-06T14:49:01;3.85;;;2.55;;
46407;SDS011;32110;45.724;21.276;2022-09-06T14:51:28;3.83;;;2.37;;
46407;SDS011;32110;45.724;21.276;2022-09-06T14:53:55;5.10;;;2.17;;
46407;SDS011;32110;45.724;21.276;2022-09-06T14:56:23;6.35;;;2.30;;
46407;SDS011;32110;45.724;21.276;2022-09-06T14:58:49;3.92;;;2.28;;
46407;SDS011;32110;45.724;21.276;2022-09-06T15:01:19;7.80;;;2.47;;
46407;SDS011;32110;45.724;21.276;2022-09-06T15:03:48;4.13;;;2.35;;
46407;SDS011;32110;45.724;21.276;2022-09-06T15:06:16;5.20;;;2.40;;
46407;SDS011;32110;45.724;21.276;2022-09-06T15:08:42;7.70;;;2.53;;
46407;SDS011;32110;45.724;21.276;2022-09-06T15:11:08;5.50;;;2.50;;
46407;SDS011;32110;45.724;21.276;2022-09-06T15:13:35;4.93;;;2.50;;
46407;SDS011;32110;45.724;21.276;2022-09-06T15:16:01;5.30;;;2.40;;
46407;SDS011;32110;45.724;21.276;2022-09-06T15:18:28;2.78;;;2.50;;
46407;SDS011;32110;45.724;21.276;2022-09-06T15:20:54;5.50;;;2.58;;
46407;SDS011;32110;45.724;21.276;2022-09-06T15:23:19;2.50;;;2.30;;
46407;SDS011;32110;45.724;21.276;2022-09-06T15:25:45;4.90;;;2.20;;
46407;SDS011;32110;45.724;21.276;2022-09-06T15:28:12;4.05;;;2.50;;
46407;SDS011;32110;45.724;21.276;2022-09-06T15:30:39;5.68;;;2.50;;
46407;SDS011;32110;45.724;21.276;2022-09-06T15:33:04;3.95;;;2.47;;
46407;SDS011;32110;45.724;21.276;2022-09-06T15:35:31;3.05;;;2.40;;
46407;SDS011;32110;45.724;21.276;2022-09-06T15:37:57;5.38;;;2.70;;
46407;SDS011;32110;45.724;21.276;2022-09-06T15:40:22;9.15;;;2.47;;
46407;SDS011;32110;45.724;21.276;2022-09-06T15:42:50;7.78;;;2.30;;
46407;SDS011;32110;45.724;21.276;2022-09-06T15:45:16;2.65;;;2.25;;
46407;SDS011;32110;45.724;21.276;2022-09-06T15:47:41;2.65;;;2.22;;
46407;SDS011;32110;45.724;21.276;2022-09-06T15:50:07;3.72;;;2.20;;
46407;SDS011;32110;45.724;21.276;2022-09-06T15:52:34;4.30;;;2.35;;
46407;SDS011;32110;45.724;21.276;2022-09-06T15:54:59;3.55;;;2.40;;
46407;SDS011;32110;45.724;21.276;2022-09-06T15:57:43;4.05;;;2.75;;
46407;SDS011;32110;45.724;21.276;2022-09-06T16:00:10;6.60;;;2.55;;
46407;SDS011;32110;45.724;21.276;2022-09-06T16:02:37;4.47;;;2.35;;
46407;SDS011;32110;45.724;21.276;2022-09-06T16:05:03;5.78;;;2.42;;
46407;SDS011;32110;45.724;21.276;2022-09-06T16:07:29;5.40;;;2.40;;
46407;SDS011;32110;45.724;21.276;2022-09-06T16:09:55;4.97;;;2.38;;
46407;SDS011;32110;45.724;21.276;2022-09-06T16:12:21;11.73;;;2.58;;
46407;SDS011;32110;45.724;21.276;2022-09-06T16:14:46;10.40;;;2.45;;
46407;SDS011;32110;45.724;21.276;2022-09-06T16:17:12;5.65;;;2.45;;
46407;SDS011;32110;45.724;21.276;2022-09-06T16:19:37;2.58;;;2.20;;
46407;SDS011;32110;45.724;21.276;2022-09-06T16:22:03;5.50;;;2.40;;
46407;SDS011;32110;45.724;21.276;2022-09-06T16:24:29;6.07;;;2.50;;
46407;SDS011;32110;45.724;21.276;2022-09-06T16:26:54;6.40;;;2.90;;